createdAt,value
2023-04-04T00:00:22.254Z,42.82
2023-04-04T00:02:49.615Z,42.72
2023-04-04T00:05:17.092Z,43.01
2023-04-04T00:07:47.234Z,42.46
2023-04-04T00:10:13.927Z,43.15
2023-04-04T00:12:40.707Z,43.01
2023-04-04T00:15:10.027Z,43.11
2023-04-04T00:17:36.713Z,43.39
2023-04-04T00:20:04.532Z,42.98
2023-04-04T00:22:31.558Z,42.85
2023-04-04T00:24:59.133Z,43.34
2023-04-04T00:27:26.240Z,44.02
2023-04-04T00:29:52.946Z,43.96
2023-04-04T00:32:19.594Z,44.33
2023-04-04T00:34:46.458Z,44.43
2023-04-04T00:37:13.149Z,44.65
2023-04-04T00:39:39.714Z,45.55
2023-04-04T00:42:06.702Z,44.75
2023-04-04T00:44:35.768Z,45.60
2023-04-04T00:47:04.309Z,44.94
2023-04-04T00:49:31.078Z,45.82
2023-04-04T00:51:58.012Z,45.22
2023-04-04T00:54:25.165Z,44.91
2023-04-04T00:56:55.445Z,45.46
2023-04-04T00:59:27.905Z,45.92
2023-04-04T01:01:54.961Z,45.76
2023-04-04T01:04:22.042Z,45.80
2023-04-04T01:06:49.854Z,45.68
2023-04-04T01:09:16.628Z,45.52
2023-04-04T01:11:44.044Z,45.48
2023-04-04T01:14:10.897Z,45.44
2023-04-04T01:16:37.833Z,45.23
2023-04-04T01:19:08.953Z,45.16
2023-04-04T01:21:36.318Z,45.39
2023-04-04T01:24:03.880Z,45.17
2023-04-04T01:26:31.405Z,45.07
2023-04-04T01:28:58.984Z,45.52
2023-04-04T01:31:41.827Z,45.25
2023-04-04T01:34:23.574Z,45.49
2023-04-04T01:36:59.714Z,45.43
2023-04-04T01:39:39.696Z,45.47
2023-04-04T01:42:08.098Z,45.37
2023-04-04T01:44:34.846Z,45.40
2023-04-04T01:47:03.513Z,45.75
2023-04-04T01:49:30.095Z,45.93
2023-04-04T01:51:57.207Z,45.42
2023-04-04T01:54:24.133Z,45.00
2023-04-04T01:56:51.730Z,45.26
2023-04-04T01:59:18.339Z,45.56
2023-04-04T02:01:45.283Z,45.96
2023-04-04T02:04:15.274Z,45.63
2023-04-04T02:06:42.331Z,45.65
2023-04-04T02:09:08.901Z,45.87
2023-04-04T02:11:35.557Z,45.69
2023-04-04T02:14:02.332Z,46.55
2023-04-04T02:16:29.008Z,45.82
2023-04-04T02:18:55.764Z,46.22
2023-04-04T02:21:22.670Z,45.87
2023-04-04T02:23:49.264Z,45.99
2023-04-04T02:26:16.853Z,46.27
2023-04-04T02:28:43.434Z,46.71
2023-04-04T02:31:10.087Z,46.74
2023-04-04T02:33:36.719Z,46.48
2023-04-04T02:36:03.455Z,45.94
2023-04-04T02:38:30.084Z,46.18
2023-04-04T02:40:56.635Z,46.26
2023-04-04T02:43:23.214Z,46.41
2023-04-04T02:45:49.868Z,46.47
2023-04-04T02:48:16.459Z,46.09
2023-04-04T02:50:43.478Z,46.00
2023-04-04T02:53:10.323Z,46.37
2023-04-04T02:55:36.889Z,46.67
2023-04-04T02:58:03.506Z,46.87
2023-04-04T03:00:30.067Z,47.37
2023-04-04T03:02:57.758Z,46.66
2023-04-04T03:05:25.413Z,46.90
2023-04-04T03:07:56.337Z,47.03
2023-04-04T03:10:29.869Z,46.86
2023-04-04T03:12:57.137Z,46.67
2023-04-04T03:15:25.918Z,46.81
2023-04-04T03:17:53.102Z,47.00
2023-04-04T03:20:19.820Z,47.38
2023-04-04T03:22:46.881Z,46.88
2023-04-04T03:25:13.441Z,47.70
2023-04-04T03:27:39.983Z,47.39
2023-04-04T03:30:09.831Z,47.31
2023-04-04T03:32:37.997Z,47.51
2023-04-04T03:35:05.533Z,47.54
2023-04-04T03:37:32.063Z,47.99
2023-04-04T03:39:58.985Z,48.19
2023-04-04T03:42:26.860Z,48.28
2023-04-04T03:44:53.759Z,47.98
2023-04-04T03:47:21.651Z,48.42
2023-04-04T03:49:48.277Z,48.89
2023-04-04T03:52:14.783Z,48.00
2023-04-04T03:54:41.806Z,48.33
2023-04-04T03:57:08.404Z,48.51
2023-04-04T03:59:34.940Z,48.85
2023-04-04T04:02:01.602Z,49.31
2023-04-04T04:04:28.238Z,48.60
2023-04-04T04:06:54.877Z,48.63
2023-04-04T04:09:21.464Z,49.38
2023-04-04T04:11:48.270Z,49.34
2023-04-04T04:14:14.887Z,48.95
2023-04-04T04:16:41.617Z,49.04
2023-04-04T04:19:08.237Z,49.06
2023-04-04T04:21:34.829Z,49.33
2023-04-04T04:24:01.452Z,49.13
2023-04-04T04:26:28.035Z,49.11
2023-04-04T04:28:54.676Z,49.35
2023-04-04T04:31:21.662Z,48.91
2023-04-04T04:33:48.793Z,48.88
2023-04-04T04:36:15.575Z,48.93
2023-04-04T04:38:42.204Z,48.91
2023-04-04T04:41:08.786Z,49.11
2023-04-04T04:43:37.023Z,48.99
2023-04-04T04:46:03.595Z,48.98
2023-04-04T04:48:30.132Z,48.78
2023-04-04T04:51:15.309Z,49.36
2023-04-04T04:53:42.048Z,49.45
2023-04-04T04:56:08.667Z,49.14
2023-04-04T04:58:35.408Z,48.21
2023-04-04T05:01:02.130Z,48.50
2023-04-04T05:03:28.824Z,48.51
2023-04-04T05:05:55.507Z,48.74
2023-04-04T05:08:22.512Z,48.37
2023-04-04T05:10:50.721Z,48.00
2023-04-04T05:13:17.336Z,47.89
2023-04-04T05:15:43.856Z,47.94
2023-04-04T05:18:10.616Z,48.13
2023-04-04T05:20:37.570Z,48.00
2023-04-04T05:23:04.542Z,47.85
2023-04-04T05:25:31.131Z,47.80
2023-04-04T05:27:58.670Z,47.52
2023-04-04T05:30:25.335Z,47.66
2023-04-04T05:32:52.714Z,47.79
2023-04-04T05:35:19.436Z,48.26
2023-04-04T05:37:45.982Z,48.18
2023-04-04T05:40:12.803Z,47.89
2023-04-04T05:42:39.368Z,47.60
2023-04-04T05:45:06.566Z,47.99
2023-04-04T05:47:33.174Z,47.56
2023-04-04T05:49:59.775Z,47.71
2023-04-04T05:52:26.940Z,46.95
2023-04-04T05:54:53.539Z,47.59
2023-04-04T05:57:20.112Z,46.77
2023-04-04T05:59:46.693Z,46.49
2023-04-04T06:02:13.469Z,46.57
2023-04-04T06:04:41.076Z,46.46
2023-04-04T06:07:07.789Z,46.74
2023-04-04T06:09:36.212Z,46.50
2023-04-04T06:12:06.038Z,45.84
2023-04-04T06:14:32.684Z,45.61
2023-04-04T06:16:59.392Z,46.29
2023-04-04T06:19:26.096Z,45.77
2023-04-04T06:21:52.672Z,45.45
2023-04-04T06:24:19.518Z,46.17
2023-04-04T06:26:46.483Z,44.59
2023-04-04T06:29:13.295Z,44.56
2023-04-04T06:31:39.915Z,44.54
2023-04-04T06:34:06.496Z,43.94
2023-04-04T06:36:33.126Z,43.94
2023-04-04T06:38:59.675Z,43.80
2023-04-04T06:41:26.341Z,43.83
2023-04-04T06:43:53.101Z,43.80
2023-04-04T06:46:19.720Z,43.85
2023-04-04T06:48:46.295Z,43.03
2023-04-04T06:51:12.917Z,43.20
2023-04-04T06:53:39.669Z,43.51
2023-04-04T06:56:06.608Z,42.88
2023-04-04T06:58:33.216Z,42.91
2023-04-04T07:01:00.041Z,44.02
2023-04-04T07:03:27.352Z,44.02
2023-04-04T07:05:54.007Z,43.66
2023-04-04T07:08:21.383Z,43.97
2023-04-04T07:10:47.976Z,44.06
2023-04-04T07:13:14.690Z,43.05
2023-04-04T07:15:41.366Z,43.26
2023-04-04T07:18:09.185Z,42.76
2023-04-04T07:20:35.796Z,42.26
2023-04-04T07:23:02.508Z,42.76
2023-04-04T07:25:29.062Z,43.24
2023-04-04T07:28:06.023Z,42.73
2023-04-04T07:30:39.026Z,41.59
2023-04-04T07:33:06.048Z,42.23
2023-04-04T07:35:34.866Z,42.24
2023-04-04T07:38:01.492Z,42.70
2023-04-04T07:40:28.216Z,42.56
2023-04-04T07:42:54.879Z,43.55
2023-04-04T07:45:24.752Z,43.04
2023-04-04T07:47:51.623Z,40.84
2023-04-04T07:50:18.691Z,41.36
2023-04-04T07:52:51.490Z,39.73
2023-04-04T07:55:19.593Z,38.99
2023-04-04T07:57:47.286Z,39.66
2023-04-04T08:00:14.511Z,38.93
2023-04-04T08:02:41.255Z,39.45
2023-04-04T08:05:08.659Z,39.22
2023-04-04T08:07:35.202Z,39.39
2023-04-04T08:10:01.873Z,38.57
2023-04-04T08:12:28.582Z,38.94
2023-04-04T08:14:56.004Z,39.00
2023-04-04T08:17:22.909Z,39.48
2023-04-04T08:19:49.545Z,39.84
2023-04-04T08:22:16.108Z,38.67
2023-04-04T08:24:42.860Z,38.93
2023-04-04T08:27:09.523Z,38.86
2023-04-04T08:29:54.811Z,38.07
2023-04-04T08:32:22.181Z,37.65
2023-04-04T08:34:48.867Z,37.41
2023-04-04T08:37:15.505Z,37.54
2023-04-04T08:39:42.201Z,37.65
2023-04-04T08:42:09.493Z,36.82
2023-04-04T08:44:39.660Z,37.90
2023-04-04T08:47:09.640Z,38.39
2023-04-04T08:49:41.087Z,37.81
2023-04-04T08:52:11.102Z,37.29
2023-04-04T08:54:39.941Z,36.39
2023-04-04T08:57:06.991Z,35.44
2023-04-04T08:59:33.839Z,36.07
2023-04-04T09:02:09.742Z,36.77
2023-04-04T09:04:37.148Z,36.23
2023-04-04T09:07:05.285Z,35.99
2023-04-04T09:09:35.199Z,36.04
2023-04-04T09:12:02.486Z,36.15
2023-04-04T09:14:34.229Z,35.86
2023-04-04T09:17:00.965Z,35.72
2023-04-04T09:19:27.713Z,35.48
2023-04-04T09:21:54.291Z,35.06
2023-04-04T09:24:20.870Z,35.43
2023-04-04T09:26:55.271Z,35.61
2023-04-04T09:29:22.362Z,35.12
2023-04-04T09:31:50.472Z,35.49
2023-04-04T09:34:19.459Z,35.71
2023-04-04T09:36:46.350Z,35.01
2023-04-04T09:39:16.656Z,34.80
2023-04-04T09:41:45.518Z,34.44
2023-04-04T09:44:15.432Z,35.31
2023-04-04T09:46:42.430Z,35.20
2023-04-04T09:49:19.291Z,34.15
2023-04-04T09:51:49.834Z,35.08
2023-04-04T09:54:29.449Z,34.04
2023-04-04T09:56:57.133Z,34.51
2023-04-04T09:59:24.441Z,34.29
2023-04-04T10:01:53.589Z,34.03
2023-04-04T10:04:20.706Z,34.09
2023-04-04T10:06:47.743Z,33.72
2023-04-04T10:09:16.204Z,33.18
2023-04-04T10:11:42.901Z,33.73
2023-04-04T10:14:09.543Z,33.44
2023-04-04T10:16:37.768Z,32.79
2023-04-04T10:19:07.855Z,32.64
2023-04-04T10:21:35.072Z,31.74
2023-04-04T10:24:08.918Z,32.46
2023-04-04T10:26:36.905Z,32.90
2023-04-04T10:29:05.135Z,32.12
2023-04-04T10:31:34.160Z,32.48
2023-04-04T10:34:12.261Z,31.84
2023-04-04T10:37:05.462Z,32.63
2023-04-04T10:39:45.216Z,32.01
2023-04-04T10:42:16.729Z,32.70
2023-04-04T10:44:45.342Z,32.13
2023-04-04T10:47:21.835Z,32.37
2023-04-04T10:49:50.624Z,31.81
2023-04-04T10:52:22.829Z,31.50
2023-04-04T10:54:57.344Z,31.11
2023-04-04T10:57:25.348Z,30.68
2023-04-04T11:00:09.899Z,31.64
2023-04-04T11:02:48.761Z,31.65
2023-04-04T11:05:34.417Z,31.89
2023-04-04T11:08:07.475Z,31.13
2023-04-04T11:10:41.353Z,31.47
2023-04-04T11:13:14.647Z,31.18
2023-04-04T11:15:53.087Z,30.00
2023-04-04T11:18:31.607Z,30.13
2023-04-04T11:21:05.306Z,30.97
2023-04-04T11:23:50.241Z,29.58
2023-04-04T11:26:29.130Z,30.14
2023-04-04T11:29:04.164Z,29.86
2023-04-04T11:31:45.260Z,28.54
2023-04-04T11:34:13.779Z,29.75
2023-04-04T11:36:41.619Z,29.19
2023-04-04T11:39:28.753Z,28.71
2023-04-04T11:42:05.685Z,28.04
2023-04-04T11:44:34.981Z,28.81
2023-04-04T11:47:09.378Z,28.34
2023-04-04T11:49:43.214Z,27.91
2023-04-04T11:52:14.336Z,28.09
2023-04-04T11:54:42.762Z,27.73
2023-04-04T11:57:13.981Z,29.23
2023-04-04T11:59:42.397Z,28.84
2023-04-04T12:02:09.935Z,27.55
2023-04-04T12:04:38.264Z,29.12
2023-04-04T12:07:07.942Z,25.02
2023-04-04T12:09:34.807Z,25.70
2023-04-04T12:12:01.537Z,26.13
2023-04-04T12:14:28.173Z,25.25
2023-04-04T12:16:57.537Z,26.35
2023-04-04T12:19:24.786Z,25.92
2023-04-04T12:21:53.502Z,25.89
2023-04-04T12:24:21.020Z,26.49
2023-04-04T12:26:50.101Z,27.62
2023-04-04T12:29:18.652Z,26.37
2023-04-04T12:31:47.230Z,25.45
2023-04-04T12:34:17.819Z,24.64
2023-04-04T12:36:47.807Z,25.36
2023-04-04T12:39:16.423Z,25.63
2023-04-04T12:41:52.086Z,24.22
2023-04-04T12:44:38.238Z,24.19
2023-04-04T12:47:07.364Z,24.65
2023-04-04T12:49:43.016Z,24.82
2023-04-04T12:52:32.691Z,23.73
2023-04-04T12:57:52.970Z,22.87
2023-04-04T13:00:21.562Z,21.88
2023-04-04T13:02:50.949Z,22.12
2023-04-04T13:05:20.635Z,22.34
2023-04-04T13:07:47.391Z,22.55
2023-04-04T13:10:16.336Z,22.70
2023-04-04T13:13:00.048Z,22.28
2023-04-04T13:15:52.497Z,21.96
2023-04-04T13:18:24.964Z,22.68
2023-04-04T13:20:53.103Z,22.70
2023-04-04T13:23:20.921Z,22.35
2023-04-04T13:25:47.828Z,22.35
2023-04-04T13:28:14.601Z,22.78
2023-04-04T13:30:46.667Z,23.33
2023-04-04T13:33:13.446Z,21.63
2023-04-04T13:35:42.307Z,21.53
2023-04-04T13:38:09.028Z,22.85
2023-04-04T13:40:35.599Z,22.06
2023-04-04T13:43:02.203Z,21.88
2023-04-04T13:45:28.801Z,21.67
2023-04-04T13:47:55.546Z,21.51
2023-04-04T13:50:23.033Z,21.66
2023-04-04T13:52:53.484Z,21.57
2023-04-04T13:55:21.859Z,21.04
2023-04-04T13:57:48.400Z,21.99
2023-04-04T14:00:15.837Z,21.82
2023-04-04T14:02:42.440Z,21.31
2023-04-04T14:05:09.186Z,21.67
2023-04-04T14:07:38.280Z,21.15
2023-04-04T14:10:05.394Z,21.41
2023-04-04T14:12:32.027Z,21.22
2023-04-04T14:14:58.582Z,20.72
2023-04-04T14:17:25.201Z,20.81
2023-04-04T14:19:51.808Z,21.35
2023-04-04T14:22:18.481Z,21.24
2023-04-04T14:24:45.073Z,21.94
2023-04-04T14:27:12.000Z,21.71
2023-04-04T14:29:38.536Z,20.82
2023-04-04T14:32:05.234Z,20.45
2023-04-04T14:34:31.883Z,20.48
2023-04-04T14:36:59.569Z,20.08
2023-04-04T14:39:26.143Z,20.67
2023-04-04T14:41:52.728Z,20.58
2023-04-04T14:44:21.215Z,20.65
2023-04-04T14:46:48.108Z,20.16
2023-04-04T14:49:14.673Z,20.92
2023-04-04T14:51:41.436Z,21.10
2023-04-04T14:54:07.960Z,21.78
2023-04-04T14:56:34.545Z,21.79
2023-04-04T14:59:02.065Z,21.66
2023-04-04T15:01:29.151Z,21.76
2023-04-04T15:03:56.303Z,21.24
2023-04-04T15:06:23.293Z,21.21
2023-04-04T15:08:49.895Z,20.61
2023-04-04T15:11:16.724Z,20.46
2023-04-04T15:13:44.107Z,20.54
2023-04-04T15:16:10.757Z,20.69
2023-04-04T15:18:40.272Z,20.74
2023-04-04T15:21:06.862Z,21.09
2023-04-04T15:23:33.618Z,20.97
2023-04-04T15:26:00.154Z,21.94
2023-04-04T15:28:27.274Z,21.73
2023-04-04T15:30:53.891Z,21.75
2023-04-04T15:33:20.539Z,21.93
2023-04-04T15:35:47.111Z,22.08
2023-04-04T15:38:13.688Z,21.84
2023-04-04T15:40:40.407Z,21.35
2023-04-04T15:43:07.312Z,21.74
2023-04-04T15:45:33.916Z,21.58
2023-04-04T15:48:00.525Z,21.96
2023-04-04T15:50:27.155Z,21.62
2023-04-04T15:52:53.759Z,21.55
2023-04-04T15:55:22.032Z,21.04
2023-04-04T15:57:48.865Z,21.32
2023-04-04T16:00:16.901Z,21.98
2023-04-04T16:02:44.207Z,21.41
2023-04-04T16:05:11.081Z,21.70
2023-04-04T16:07:37.806Z,22.08
2023-04-04T16:10:04.909Z,22.56
2023-04-04T16:12:31.710Z,22.76
2023-04-04T16:14:58.304Z,22.90
2023-04-04T16:17:26.245Z,23.24
2023-04-04T16:19:52.981Z,23.38
2023-04-04T16:22:19.563Z,23.79
2023-04-04T16:24:46.253Z,24.54
2023-04-04T16:27:12.822Z,24.38
2023-04-04T16:29:39.432Z,24.55
2023-04-04T16:32:07.895Z,24.84
2023-04-04T16:34:36.191Z,24.93
2023-04-04T16:37:04.242Z,25.33
2023-04-04T16:39:30.885Z,25.61
2023-04-04T16:41:57.848Z,26.00
2023-04-04T16:44:24.458Z,26.17
2023-04-04T16:46:51.070Z,27.13
2023-04-04T16:49:17.729Z,27.27
2023-04-04T16:51:44.275Z,27.25
2023-04-04T16:54:11.274Z,27.72
2023-04-04T16:56:37.869Z,27.36
2023-04-04T16:59:04.623Z,27.76
2023-04-04T17:01:31.888Z,27.84
2023-04-04T17:03:59.273Z,28.23
2023-04-04T17:06:25.940Z,28.59
2023-04-04T17:08:52.799Z,28.94
2023-04-04T17:11:19.348Z,29.33
2023-04-04T17:13:46.125Z,28.83
2023-04-04T17:16:12.854Z,29.10
2023-04-04T17:18:39.500Z,28.74
2023-04-04T17:21:06.459Z,29.46
2023-04-04T17:23:33.772Z,29.47
2023-04-04T17:26:00.397Z,29.56
2023-04-04T17:28:27.005Z,29.27
2023-04-04T17:30:53.651Z,30.80
2023-04-04T17:33:23.125Z,30.08
2023-04-04T17:35:49.899Z,30.23
2023-04-04T17:38:16.596Z,30.48
2023-04-04T17:40:43.176Z,30.63
2023-04-04T17:43:09.760Z,30.60
2023-04-04T17:45:36.530Z,30.50
2023-04-04T17:48:03.150Z,31.18
2023-04-04T17:50:29.843Z,31.19
2023-04-04T17:52:56.497Z,31.34
2023-04-04T17:55:23.136Z,31.31
2023-04-04T17:57:49.823Z,31.87
2023-04-04T18:00:16.713Z,31.92
2023-04-04T18:02:43.416Z,31.75
2023-04-04T18:05:10.574Z,31.42
2023-04-04T18:07:37.247Z,31.34
2023-04-04T18:10:04.105Z,32.02
2023-04-04T18:12:32.532Z,32.06
2023-04-04T18:15:01.227Z,32.12
2023-04-04T18:17:28.433Z,31.96
2023-04-04T18:19:57.420Z,31.82
2023-04-04T18:22:24.006Z,32.32
2023-04-04T18:24:50.737Z,32.50
2023-04-04T18:27:17.321Z,32.39
2023-04-04T18:29:44.173Z,32.45
2023-04-04T18:32:10.762Z,32.63
2023-04-04T18:34:37.310Z,32.65
2023-04-04T18:37:03.855Z,32.98
2023-04-04T18:39:30.691Z,32.72
2023-04-04T18:41:57.676Z,33.28
2023-04-04T18:44:24.395Z,33.43
2023-04-04T18:46:51.039Z,33.44
2023-04-04T18:49:17.665Z,33.58
2023-04-04T18:51:44.368Z,33.63
2023-04-04T18:54:11.069Z,33.49
2023-04-04T18:56:38.519Z,33.95
2023-04-04T18:59:05.568Z,34.24
2023-04-04T19:01:33.110Z,33.87
2023-04-04T19:04:03.126Z,34.27
2023-04-04T19:06:31.717Z,34.61
2023-04-04T19:09:03.882Z,34.97
2023-04-04T19:11:31.508Z,34.96
2023-04-04T19:13:58.128Z,35.45
2023-04-04T19:16:24.802Z,35.66
2023-04-04T19:18:51.880Z,35.62
2023-04-04T19:21:18.535Z,35.94
2023-04-04T19:23:45.738Z,35.68
2023-04-04T19:26:12.322Z,35.96
2023-04-04T19:28:39.159Z,36.10
2023-04-04T19:31:10.824Z,36.60
2023-04-04T19:33:38.626Z,35.84
2023-04-04T19:36:11.818Z,36.14
2023-04-04T19:38:42.612Z,36.38
2023-04-04T19:41:23.951Z,36.09
2023-04-04T19:43:50.735Z,36.45
2023-04-04T19:46:25.609Z,36.32
2023-04-04T19:48:54.624Z,36.59
2023-04-04T19:51:21.147Z,37.06
2023-04-04T19:53:53.214Z,37.37
2023-04-04T19:56:21.526Z,37.13
2023-04-04T19:58:53.013Z,37.48
2023-04-04T20:01:25.335Z,37.43
2023-04-04T20:03:51.912Z,37.79
2023-04-04T20:06:27.623Z,37.28
2023-04-04T20:09:02.403Z,37.53
2023-04-04T20:11:30.167Z,38.31
2023-04-04T20:13:58.056Z,37.89
2023-04-04T20:16:25.356Z,37.61
2023-04-04T20:18:52.486Z,37.79
2023-04-04T20:21:23.122Z,38.34
2023-04-04T20:23:50.119Z,38.71
2023-04-04T20:26:56.813Z,38.62
2023-04-04T20:29:26.642Z,39.03
2023-04-04T20:31:58.722Z,38.72
2023-04-04T20:34:25.714Z,39.54
2023-04-04T20:36:52.616Z,39.17
2023-04-04T20:40:20.750Z,38.84
2023-04-04T20:42:47.840Z,39.30
2023-04-04T20:45:26.601Z,39.52
2023-04-04T20:47:57.094Z,39.30
2023-04-04T20:50:23.631Z,39.63
2023-04-04T20:52:58.614Z,39.73
2023-04-04T20:55:30.665Z,39.58
2023-04-04T20:58:08.741Z,40.31
2023-04-04T21:00:40.802Z,40.10
2023-04-04T21:03:25.983Z,40.33
2023-04-04T21:05:56.502Z,40.25
2023-04-04T21:08:24.113Z,40.25
2023-04-04T21:10:53.095Z,40.29
2023-04-04T21:13:37.485Z,40.14
2023-04-04T21:16:09.419Z,40.73
2023-04-04T21:18:37.704Z,39.92
2023-04-04T21:21:16.935Z,40.73
2023-04-04T21:23:49.310Z,40.24
2023-04-04T21:26:28.705Z,40.96
2023-04-04T21:28:57.702Z,40.65
2023-04-04T21:31:27.510Z,41.02
2023-04-04T21:33:56.190Z,40.77
2023-04-04T21:36:28.657Z,41.15
2023-04-04T21:38:57.807Z,41.04
2023-04-04T21:41:26.813Z,41.15
2023-04-04T21:43:54.812Z,41.14
2023-04-04T21:46:26.465Z,41.13
2023-04-04T21:48:54.255Z,41.49
2023-04-04T21:51:21.573Z,41.31
2023-04-04T21:53:49.392Z,41.80
2023-04-04T21:56:16.998Z,41.44
2023-04-04T21:58:43.960Z,41.71
2023-04-04T22:01:17.226Z,41.77
2023-04-04T22:03:43.818Z,41.96
2023-04-04T22:06:10.459Z,41.24
2023-04-04T22:08:37.043Z,41.51
2023-04-04T22:11:04.093Z,41.49
2023-04-04T22:13:33.922Z,41.64
2023-04-04T22:16:02.380Z,41.40
2023-04-04T22:18:35.338Z,42.65
2023-04-04T22:21:07.051Z,42.54
2023-04-04T22:23:35.695Z,42.17
2023-04-04T22:26:07.022Z,41.91
2023-04-04T22:28:34.237Z,42.12
2023-04-04T22:31:01.950Z,42.01
2023-04-04T22:33:29.860Z,42.39
2023-04-04T22:35:58.041Z,42.48
2023-04-04T22:38:28.552Z,42.48
2023-04-04T22:40:56.839Z,43.09
2023-04-04T22:43:25.595Z,43.49
2023-04-04T22:45:53.256Z,43.04
2023-04-04T22:48:22.957Z,43.12
2023-04-04T22:50:55.994Z,43.13
2023-04-04T22:53:26.203Z,42.96
2023-04-04T22:55:53.842Z,43.35
2023-04-04T22:58:21.653Z,43.42
2023-04-04T23:00:48.857Z,43.62
2023-04-04T23:03:15.891Z,43.25
2023-04-04T23:05:42.879Z,44.04
2023-04-04T23:08:09.641Z,43.81
2023-04-04T23:10:37.006Z,44.11
2023-04-04T23:13:03.785Z,43.10
2023-04-04T23:15:32.338Z,43.35
2023-04-04T23:17:59.078Z,44.25
2023-04-04T23:20:25.726Z,44.08
2023-04-04T23:22:52.929Z,43.93
2023-04-04T23:25:19.665Z,44.11
2023-04-04T23:27:46.369Z,44.49
2023-04-04T23:30:13.201Z,44.28
2023-04-04T23:32:39.851Z,44.76
2023-04-04T23:35:06.721Z,45.05
2023-04-04T23:37:33.299Z,45.08
2023-04-04T23:39:59.838Z,45.63
2023-04-04T23:42:26.630Z,45.38
2023-04-04T23:44:53.257Z,45.41
2023-04-04T23:47:20.929Z,45.82
2023-04-04T23:49:47.565Z,45.81
2023-04-04T23:52:14.174Z,46.34
2023-04-04T23:54:40.810Z,46.76
2023-04-04T23:57:07.382Z,45.56
2023-04-04T23:59:34.021Z,45.77
